createdAt,value
2022-12-02T00:01:20.436Z,2.90
2022-12-02T00:03:49.180Z,2.90
2022-12-02T00:06:29.338Z,3.00
2022-12-02T00:09:35.929Z,3.10
2022-12-02T00:12:16.784Z,3.00
2022-12-02T00:14:44.190Z,3.10
2022-12-02T00:17:11.404Z,3.20
2022-12-02T00:19:38.605Z,3.10
2022-12-02T00:22:05.760Z,3.20
2022-12-02T00:24:33.139Z,3.20
2022-12-02T00:27:00.332Z,3.20
2022-12-02T00:29:27.492Z,3.20
2022-12-02T00:31:54.844Z,3.20
2022-12-02T00:34:22.108Z,3.10
2022-12-02T00:36:49.361Z,3.10
2022-12-02T00:39:16.852Z,3.10
2022-12-02T00:41:44.011Z,3.10
2022-12-02T00:44:30.014Z,3.10
2022-12-02T00:46:57.191Z,3.00
2022-12-02T00:49:24.508Z,3.00
2022-12-02T00:51:51.699Z,3.00
2022-12-02T00:54:18.885Z,3.00
2022-12-02T00:56:46.098Z,3.00
2022-12-02T00:59:13.271Z,3.00
2022-12-02T01:01:44.754Z,3.00
2022-12-02T01:04:12.432Z,3.10
2022-12-02T01:06:39.709Z,3.00
2022-12-02T01:09:06.913Z,3.00
2022-12-02T01:11:34.107Z,2.90
2022-12-02T01:14:01.384Z,2.90
2022-12-02T01:16:28.690Z,2.90
2022-12-02T01:18:55.907Z,2.90
2022-12-02T01:21:23.454Z,2.90
2022-12-02T01:23:50.729Z,2.90
2022-12-02T01:26:18.116Z,2.90
2022-12-02T01:28:45.434Z,2.90
2022-12-02T01:31:12.809Z,2.90
2022-12-02T01:33:40.101Z,3.00
2022-12-02T01:36:07.733Z,3.00
2022-12-02T01:38:35.085Z,3.10
2022-12-02T01:41:02.510Z,3.10
2022-12-02T01:43:29.799Z,3.00
2022-12-02T01:45:57.566Z,3.00
2022-12-02T01:48:24.867Z,3.00
2022-12-02T01:50:52.139Z,3.00
2022-12-02T01:53:19.363Z,3.00
2022-12-02T01:55:46.645Z,3.00
2022-12-02T01:58:14.735Z,3.00
2022-12-02T02:00:42.002Z,3.00
2022-12-02T02:03:09.346Z,3.00
2022-12-02T02:05:37.145Z,3.00
2022-12-02T02:08:08.288Z,3.00
2022-12-02T02:10:37.437Z,3.00
2022-12-02T02:13:05.676Z,2.90
2022-12-02T02:15:33.243Z,2.90
2022-12-02T02:18:05.170Z,3.00
2022-12-02T02:20:34.104Z,2.90
2022-12-02T02:23:07.080Z,2.90
2022-12-02T02:25:39.062Z,3.00
2022-12-02T02:28:07.718Z,2.90
2022-12-02T02:30:36.556Z,2.90
2022-12-02T02:33:06.571Z,2.90
2022-12-02T02:35:35.630Z,2.90
2022-12-02T02:38:04.727Z,2.90
2022-12-02T02:40:32.205Z,2.90
2022-12-02T02:43:01.937Z,2.90
2022-12-02T02:45:34.017Z,2.90
2022-12-02T02:48:03.121Z,2.90
2022-12-02T02:50:30.878Z,2.80
2022-12-02T02:52:58.441Z,2.80
2022-12-02T02:55:27.166Z,2.80
2022-12-02T02:57:55.600Z,2.80
2022-12-02T03:00:23.434Z,2.80
2022-12-02T03:02:55.680Z,2.80
2022-12-02T03:05:23.907Z,2.70
2022-12-02T03:07:51.818Z,2.60
2022-12-02T03:10:19.558Z,2.60
2022-12-02T03:12:47.564Z,2.50
2022-12-02T03:15:15.224Z,2.40
2022-12-02T03:17:42.568Z,2.40
2022-12-02T03:20:10.362Z,2.20
2022-12-02T03:22:37.689Z,2.30
2022-12-02T03:25:07.037Z,2.30
2022-12-02T03:27:34.780Z,2.30
2022-12-02T03:30:02.574Z,2.30
2022-12-02T03:32:30.169Z,2.20
2022-12-02T03:34:57.778Z,2.30
2022-12-02T03:37:25.018Z,2.30
2022-12-02T03:39:52.652Z,2.30
2022-12-02T03:42:20.270Z,2.20
2022-12-02T03:44:49.716Z,2.30
2022-12-02T03:47:17.141Z,2.30
2022-12-02T03:49:44.623Z,2.30
2022-12-02T03:52:12.095Z,2.30
2022-12-02T03:54:39.513Z,2.30
2022-12-02T03:57:07.770Z,2.40
2022-12-02T03:59:35.228Z,2.40
2022-12-02T04:02:02.537Z,2.40
2022-12-02T04:04:29.799Z,2.20
2022-12-02T04:06:57.037Z,2.20
2022-12-02T04:09:24.237Z,2.30
2022-12-02T04:11:51.492Z,2.40
2022-12-02T04:14:18.802Z,2.30
2022-12-02T04:16:45.986Z,2.30
2022-12-02T04:19:15.434Z,2.30
2022-12-02T04:21:42.733Z,2.30
2022-12-02T04:24:10.190Z,2.30
2022-12-02T04:26:42.043Z,2.20
2022-12-02T04:29:11.182Z,2.20
2022-12-02T04:31:38.455Z,2.20
2022-12-02T04:34:05.705Z,2.10
2022-12-02T04:36:32.995Z,2.10
2022-12-02T04:39:00.187Z,2.30
2022-12-02T04:41:29.309Z,2.30
2022-12-02T04:43:56.604Z,2.30
2022-12-02T04:46:23.950Z,2.40
2022-12-02T04:48:51.224Z,2.40
2022-12-02T04:51:18.412Z,2.40
2022-12-02T04:53:45.631Z,2.30
2022-12-02T04:56:12.860Z,2.20
2022-12-02T04:58:40.067Z,2.10
2022-12-02T05:01:07.303Z,2.20
2022-12-02T05:03:34.613Z,2.30
2022-12-02T05:06:01.997Z,2.20
2022-12-02T05:08:29.200Z,2.30
2022-12-02T05:10:56.427Z,2.30
2022-12-02T05:13:23.681Z,2.30
2022-12-02T05:15:50.981Z,2.30
2022-12-02T05:18:18.180Z,2.40
2022-12-02T05:20:45.415Z,2.30
2022-12-02T05:23:13.811Z,2.30
2022-12-02T05:25:41.071Z,2.20
2022-12-02T05:28:08.365Z,2.20
2022-12-02T05:30:35.557Z,2.30
2022-12-02T05:33:02.756Z,2.20
2022-12-02T05:35:29.943Z,2.20
2022-12-02T05:38:01.621Z,2.10
2022-12-02T05:40:31.829Z,2.00
2022-12-02T05:43:13.057Z,2.00
2022-12-02T05:45:40.249Z,2.10
2022-12-02T05:48:12.246Z,2.10
2022-12-02T05:50:40.483Z,2.10
2022-12-02T05:53:14.634Z,2.00
2022-12-02T05:55:41.825Z,2.00
2022-12-02T05:58:12.518Z,2.00
2022-12-02T06:00:39.801Z,2.10
2022-12-02T06:03:14.662Z,2.10
2022-12-02T06:05:43.239Z,2.10
2022-12-02T06:08:32.862Z,2.20
2022-12-02T06:11:16.690Z,2.20
2022-12-02T06:13:44.009Z,2.20
2022-12-02T06:16:22.691Z,2.20
2022-12-02T06:18:50.112Z,2.10
2022-12-02T06:21:20.458Z,2.00
2022-12-02T06:23:50.225Z,2.00
2022-12-02T06:26:19.702Z,2.00
2022-12-02T06:28:56.002Z,2.00
2022-12-02T06:31:42.554Z,2.00
2022-12-02T06:34:39.079Z,1.90
2022-12-02T06:37:15.063Z,1.80
2022-12-02T06:40:04.679Z,1.90
2022-12-02T06:42:39.420Z,1.90
2022-12-02T06:45:27.410Z,1.90
2022-12-02T06:48:11.117Z,1.90
2022-12-02T06:50:43.123Z,1.90
2022-12-02T06:53:25.606Z,1.80
2022-12-02T06:56:23.665Z,1.80
2022-12-02T06:58:58.977Z,1.80
2022-12-02T07:01:29.242Z,1.80
2022-12-02T07:03:59.494Z,1.80
2022-12-02T07:06:29.232Z,1.90
2022-12-02T07:09:01.661Z,1.80
2022-12-02T07:11:51.240Z,1.80
2022-12-02T07:14:40.315Z,1.80
2022-12-02T07:17:15.353Z,1.90
2022-12-02T07:19:45.831Z,1.90
2022-12-02T07:22:22.006Z,1.90
2022-12-02T07:25:05.369Z,1.90
2022-12-02T07:27:35.963Z,1.90
2022-12-02T07:30:04.202Z,1.90
2022-12-02T07:32:31.425Z,1.80
2022-12-02T07:34:58.656Z,1.80
2022-12-02T07:37:25.896Z,1.80
2022-12-02T07:39:53.311Z,1.80
2022-12-02T07:42:20.541Z,1.80
2022-12-02T07:44:47.724Z,1.80
2022-12-02T07:47:14.868Z,1.80
2022-12-02T07:49:42.376Z,1.80
2022-12-02T07:52:09.588Z,1.80
2022-12-02T07:54:36.757Z,1.90
2022-12-02T07:57:04.033Z,1.90
2022-12-02T07:59:31.240Z,1.90
2022-12-02T08:01:58.527Z,1.90
2022-12-02T08:04:25.833Z,1.90
2022-12-02T08:06:53.065Z,2.00
2022-12-02T08:09:20.433Z,2.00
2022-12-02T08:11:47.672Z,2.00
2022-12-02T08:14:14.848Z,2.00
2022-12-02T08:16:42.259Z,2.00
2022-12-02T08:19:09.513Z,2.10
2022-12-02T08:21:37.739Z,2.10
2022-12-02T08:24:05.940Z,2.10
2022-12-02T08:26:33.401Z,2.10
2022-12-02T08:29:01.024Z,2.10
2022-12-02T08:31:28.680Z,2.10
2022-12-02T08:33:56.059Z,2.10
2022-12-02T08:36:23.378Z,2.10
2022-12-02T08:38:50.725Z,2.20
2022-12-02T08:41:18.346Z,2.10
2022-12-02T08:43:45.669Z,2.10
2022-12-02T08:46:13.255Z,2.10
2022-12-02T08:48:40.518Z,2.10
2022-12-02T08:51:07.774Z,2.20
2022-12-02T08:53:35.088Z,2.10
2022-12-02T08:56:02.763Z,2.10
2022-12-02T08:58:30.001Z,2.10
2022-12-02T09:00:57.189Z,2.10
2022-12-02T09:03:24.384Z,2.20
2022-12-02T09:05:51.577Z,2.30
2022-12-02T09:08:18.769Z,2.30
2022-12-02T09:10:46.636Z,2.40
2022-12-02T09:13:13.963Z,2.40
2022-12-02T09:15:41.318Z,2.40
2022-12-02T09:18:13.817Z,2.50
2022-12-02T09:20:41.957Z,2.50
2022-12-02T09:23:09.483Z,2.40
2022-12-02T09:25:36.875Z,2.50
2022-12-02T09:28:04.168Z,2.50
2022-12-02T09:30:31.404Z,2.50
2022-12-02T09:32:58.636Z,2.50
2022-12-02T09:35:25.903Z,2.50
2022-12-02T09:37:53.181Z,2.60
2022-12-02T09:40:21.200Z,2.60
2022-12-02T09:42:48.647Z,2.70
2022-12-02T09:45:15.976Z,2.50
2022-12-02T09:47:43.549Z,2.60
2022-12-02T09:50:14.922Z,2.70
2022-12-02T09:52:42.379Z,2.70
2022-12-02T09:55:16.106Z,2.70
2022-12-02T09:57:43.949Z,2.70
2022-12-02T10:00:29.303Z,2.60
2022-12-02T10:02:56.715Z,2.70
2022-12-02T10:05:26.287Z,2.60
2022-12-02T10:07:56.995Z,2.60
2022-12-02T10:10:38.984Z,2.60
2022-12-02T10:13:08.240Z,2.60
2022-12-02T10:15:35.761Z,2.60
2022-12-02T10:18:19.465Z,2.70
2022-12-02T10:20:50.352Z,2.70
2022-12-02T10:23:18.819Z,2.70
2022-12-02T10:25:50.947Z,2.60
2022-12-02T10:28:23.263Z,2.60
2022-12-02T10:31:14.982Z,2.60
2022-12-02T10:34:07.024Z,2.50
2022-12-02T10:36:43.391Z,2.40
2022-12-02T10:39:36.063Z,2.40
2022-12-02T10:42:04.930Z,2.40
2022-12-02T10:44:36.372Z,2.40
2022-12-02T10:47:26.812Z,2.40
2022-12-02T10:49:58.717Z,2.50
2022-12-02T10:52:58.789Z,2.40
2022-12-02T10:55:27.755Z,2.50
2022-12-02T10:57:55.914Z,2.40
2022-12-02T11:00:26.351Z,2.30
2022-12-02T11:02:57.764Z,2.40
2022-12-02T11:05:32.925Z,2.40
2022-12-02T11:08:27.337Z,2.30
2022-12-02T11:11:14.772Z,2.20
2022-12-02T11:14:02.607Z,2.30
2022-12-02T11:16:29.937Z,2.30
2022-12-02T11:19:23.096Z,2.40
2022-12-02T11:21:53.131Z,2.60
2022-12-02T11:24:23.631Z,2.60
2022-12-02T11:26:59.897Z,2.60
2022-12-02T11:29:35.157Z,2.50
2022-12-02T11:32:27.361Z,2.50
2022-12-02T11:35:16.847Z,2.60
2022-12-02T11:37:47.098Z,2.70
2022-12-02T11:40:17.188Z,2.50
2022-12-02T11:42:45.693Z,2.50
2022-12-02T11:45:19.548Z,2.60
2022-12-02T11:47:57.085Z,2.60
2022-12-02T11:50:28.539Z,2.60
2022-12-02T11:53:14.294Z,2.70
2022-12-02T11:55:52.908Z,2.60
2022-12-02T11:58:20.137Z,2.60
2022-12-02T12:01:13.729Z,2.60
2022-12-02T12:03:43.525Z,2.60
2022-12-02T12:06:16.465Z,2.70
2022-12-02T12:08:49.566Z,2.60
2022-12-02T12:11:28.669Z,2.60
2022-12-02T12:14:11.072Z,2.60
2022-12-02T12:16:41.251Z,2.60
2022-12-02T12:19:20.207Z,2.60
2022-12-02T12:21:52.594Z,2.50
2022-12-02T12:24:25.916Z,2.50
2022-12-02T12:27:05.576Z,2.50
2022-12-02T12:29:35.251Z,2.60
2022-12-02T12:32:03.446Z,2.50
2022-12-02T12:34:31.564Z,2.50
2022-12-02T12:36:59.651Z,2.50
2022-12-02T12:39:26.983Z,2.40
2022-12-02T12:42:02.354Z,2.40
2022-12-02T12:44:32.587Z,2.40
2022-12-02T12:47:07.043Z,2.40
2022-12-02T12:49:35.159Z,2.40
2022-12-02T12:52:03.297Z,2.40
2022-12-02T12:54:30.814Z,2.40
2022-12-02T12:56:58.264Z,2.40
2022-12-02T12:59:25.521Z,2.40
2022-12-02T13:01:52.944Z,2.40
2022-12-02T13:04:20.280Z,2.40
2022-12-02T13:06:47.671Z,2.30
2022-12-02T13:09:16.096Z,2.20
2022-12-02T13:11:43.432Z,2.30
2022-12-02T13:14:10.770Z,2.30
2022-12-02T13:16:38.076Z,2.20
2022-12-02T13:19:06.179Z,2.20
2022-12-02T13:21:33.606Z,2.20
2022-12-02T13:24:00.881Z,2.20
2022-12-02T13:26:28.294Z,2.20
2022-12-02T13:28:57.285Z,2.10
2022-12-02T13:31:24.566Z,2.20
2022-12-02T13:33:51.831Z,2.20
2022-12-02T13:36:19.171Z,2.20
2022-12-02T13:38:46.349Z,2.20
2022-12-02T13:41:13.700Z,2.20
2022-12-02T13:43:40.903Z,2.20
2022-12-02T13:46:08.209Z,2.20
2022-12-02T13:48:35.606Z,2.20
2022-12-02T13:51:03.068Z,2.10
2022-12-02T13:53:30.932Z,2.10
2022-12-02T13:55:58.199Z,2.10
2022-12-02T13:58:25.671Z,2.00
2022-12-02T14:00:53.108Z,2.00
2022-12-02T14:03:20.455Z,2.10
2022-12-02T14:05:47.825Z,2.10
2022-12-02T14:08:15.146Z,2.10
2022-12-02T14:10:42.378Z,2.10
2022-12-02T14:13:15.835Z,2.10
2022-12-02T14:15:44.580Z,2.10
2022-12-02T14:18:12.546Z,2.00
2022-12-02T14:20:39.789Z,2.00
2022-12-02T14:23:08.376Z,2.00
2022-12-02T14:25:35.609Z,2.00
2022-12-02T14:28:02.818Z,2.10
2022-12-02T14:30:30.031Z,2.10
2022-12-02T14:32:57.299Z,2.10
2022-12-02T14:35:24.581Z,2.00
2022-12-02T14:37:51.972Z,2.00
2022-12-02T14:40:19.196Z,2.00
2022-12-02T14:42:46.368Z,2.00
2022-12-02T14:45:13.713Z,2.00
2022-12-02T14:47:40.907Z,2.10
2022-12-02T14:50:08.444Z,2.20
2022-12-02T14:52:35.735Z,2.20
2022-12-02T14:55:03.027Z,2.20
2022-12-02T14:57:30.261Z,2.20
2022-12-02T14:59:57.461Z,2.20
2022-12-02T15:02:24.754Z,2.30
2022-12-02T15:04:52.302Z,2.30
2022-12-02T15:07:19.765Z,2.20
2022-12-02T15:09:46.960Z,2.20
2022-12-02T15:12:14.127Z,2.10
2022-12-02T15:14:41.908Z,2.20
2022-12-02T15:17:09.147Z,2.10
2022-12-02T15:19:36.435Z,2.20
2022-12-02T15:22:03.732Z,2.20
2022-12-02T15:24:31.014Z,2.20
2022-12-02T15:27:00.683Z,2.10
2022-12-02T15:29:29.022Z,2.20
2022-12-02T15:31:56.417Z,2.20
2022-12-02T15:34:24.079Z,2.30
2022-12-02T15:36:51.267Z,2.20
2022-12-02T15:39:18.487Z,2.20
2022-12-02T15:41:45.663Z,2.20
2022-12-02T15:44:12.860Z,2.20
2022-12-02T15:46:40.272Z,2.10
2022-12-02T15:49:07.640Z,2.10
2022-12-02T15:51:34.896Z,2.10
2022-12-02T15:54:02.220Z,2.10
2022-12-02T15:56:29.467Z,2.20
2022-12-02T15:58:56.691Z,2.10
2022-12-02T16:01:24.041Z,2.10
2022-12-02T16:03:51.373Z,2.10
2022-12-02T16:06:18.553Z,2.10
2022-12-02T16:08:47.771Z,2.10
2022-12-02T16:11:18.267Z,2.10
2022-12-02T16:13:45.528Z,2.10
2022-12-02T16:16:12.771Z,2.10
2022-12-02T16:18:40.035Z,2.00
2022-12-02T16:21:07.389Z,2.10
2022-12-02T16:23:34.567Z,2.10
2022-12-02T16:26:01.789Z,2.00
2022-12-02T16:28:28.968Z,2.10
2022-12-02T16:30:56.362Z,2.10
2022-12-02T16:33:23.636Z,2.10
2022-12-02T16:35:51.001Z,2.00
2022-12-02T16:38:18.235Z,2.00
2022-12-02T16:40:45.404Z,2.10
2022-12-02T16:43:12.552Z,2.00
2022-12-02T16:45:39.911Z,2.10
2022-12-02T16:48:07.367Z,2.10
2022-12-02T16:50:35.013Z,2.10
2022-12-02T16:53:02.263Z,2.10
2022-12-02T16:55:29.419Z,2.10
2022-12-02T16:57:57.667Z,2.00
2022-12-02T17:00:24.983Z,2.00
2022-12-02T17:02:52.471Z,2.00
2022-12-02T17:05:19.704Z,2.00
2022-12-02T17:07:47.081Z,2.00
2022-12-02T17:10:14.327Z,1.90
2022-12-02T17:12:41.665Z,2.00
2022-12-02T17:15:10.764Z,2.00
2022-12-02T17:17:46.844Z,2.00
2022-12-02T17:20:15.129Z,2.00
2022-12-02T17:22:43.847Z,2.00
2022-12-02T17:25:12.938Z,2.00
2022-12-02T17:27:40.945Z,1.90
2022-12-02T17:30:09.787Z,1.90
2022-12-02T17:32:37.075Z,2.00
2022-12-02T17:35:04.497Z,2.00
2022-12-02T17:37:31.704Z,1.90
2022-12-02T17:39:58.929Z,1.90
2022-12-02T17:42:26.223Z,1.90
2022-12-02T17:44:53.724Z,1.90
2022-12-02T17:47:21.252Z,1.90
2022-12-02T17:49:48.417Z,1.90
2022-12-02T17:52:20.576Z,1.90
2022-12-02T17:54:49.335Z,1.80
2022-12-02T17:57:16.903Z,1.80
2022-12-02T17:59:44.325Z,1.80
2022-12-02T18:02:11.784Z,1.80
2022-12-02T18:04:43.976Z,1.80
2022-12-02T18:07:12.391Z,1.90
2022-12-02T18:09:40.507Z,1.90
2022-12-02T18:12:09.006Z,1.80
2022-12-02T18:14:36.498Z,1.80
2022-12-02T18:17:03.828Z,1.80
2022-12-02T18:19:31.032Z,1.80
2022-12-02T18:21:58.371Z,1.80
2022-12-02T18:24:25.584Z,1.70
2022-12-02T18:26:52.828Z,1.80
2022-12-02T18:29:20.096Z,1.80
2022-12-02T18:31:47.387Z,1.80
2022-12-02T18:34:14.620Z,1.80
2022-12-02T18:36:41.948Z,1.90
2022-12-02T18:39:09.292Z,1.80
2022-12-02T18:41:36.488Z,1.80
2022-12-02T18:44:03.692Z,1.70
2022-12-02T18:46:30.961Z,1.80
2022-12-02T18:48:58.214Z,1.70
2022-12-02T18:51:25.472Z,1.70
2022-12-02T18:53:53.762Z,1.70
2022-12-02T18:56:24.462Z,1.70
2022-12-02T18:58:54.294Z,1.60
2022-12-02T19:01:21.955Z,1.60
2022-12-02T19:03:49.796Z,1.70
2022-12-02T19:06:17.326Z,1.70
2022-12-02T19:08:44.780Z,1.70
2022-12-02T19:11:12.280Z,1.70
2022-12-02T19:13:39.881Z,1.80
2022-12-02T19:16:07.429Z,1.80
2022-12-02T19:18:34.948Z,1.80
2022-12-02T19:21:02.521Z,1.70
2022-12-02T19:23:30.036Z,1.70
2022-12-02T19:25:57.564Z,1.70
2022-12-02T19:28:24.951Z,1.70
2022-12-02T19:30:52.380Z,1.60
2022-12-02T19:33:19.716Z,1.50
2022-12-02T19:35:47.009Z,1.60
2022-12-02T19:38:15.603Z,1.60
2022-12-02T19:40:45.573Z,1.60
2022-12-02T19:43:14.777Z,1.60
2022-12-02T19:45:44.956Z,1.70
2022-12-02T19:48:12.631Z,1.60
2022-12-02T19:50:39.940Z,1.70
2022-12-02T19:53:07.214Z,1.60
2022-12-02T19:55:34.460Z,1.70
2022-12-02T19:58:01.675Z,1.70
2022-12-02T20:00:28.982Z,1.70
2022-12-02T20:02:56.209Z,1.60
2022-12-02T20:05:23.555Z,1.60
2022-12-02T20:07:51.171Z,1.60
2022-12-02T20:10:19.053Z,1.70
2022-12-02T20:12:46.718Z,1.70
2022-12-02T20:15:15.137Z,1.70
2022-12-02T20:17:42.987Z,1.70
2022-12-02T20:20:13.198Z,1.60
2022-12-02T20:22:41.564Z,1.60
2022-12-02T20:25:10.004Z,1.60
2022-12-02T20:27:37.655Z,1.60
2022-12-02T20:30:08.509Z,1.70
2022-12-02T20:32:37.841Z,1.60
2022-12-02T20:35:05.404Z,1.70
2022-12-02T20:37:32.658Z,1.70
2022-12-02T20:39:59.891Z,1.70
2022-12-02T20:42:27.163Z,1.70
2022-12-02T20:44:54.899Z,1.70
2022-12-02T20:47:22.587Z,1.70
2022-12-02T20:49:50.004Z,1.70
2022-12-02T20:52:17.550Z,1.60
2022-12-02T20:54:44.980Z,1.70
2022-12-02T20:57:12.836Z,1.70
2022-12-02T20:59:40.155Z,1.70
2022-12-02T21:02:07.757Z,1.70
2022-12-02T21:04:34.981Z,1.70
2022-12-02T21:07:07.828Z,1.70
2022-12-02T21:09:36.649Z,1.70
2022-12-02T21:12:04.028Z,1.70
2022-12-02T21:14:31.292Z,1.70
2022-12-02T21:16:58.591Z,1.80
2022-12-02T21:19:25.996Z,1.70
2022-12-02T21:21:53.251Z,1.70
2022-12-02T21:24:20.458Z,1.80
2022-12-02T21:26:47.610Z,1.70
2022-12-02T21:29:14.818Z,1.70
2022-12-02T21:31:42.089Z,1.70
2022-12-02T21:34:09.364Z,1.70
2022-12-02T21:36:37.450Z,1.70
2022-12-02T21:39:05.201Z,1.60
2022-12-02T21:41:32.394Z,1.70
2022-12-02T21:43:59.716Z,1.60
2022-12-02T21:46:27.032Z,1.60
2022-12-02T21:48:54.289Z,1.70
2022-12-02T21:51:21.500Z,1.70
2022-12-02T21:53:48.741Z,1.70
2022-12-02T21:56:16.008Z,1.60
2022-12-02T21:58:43.295Z,1.60
2022-12-02T22:01:29.041Z,1.60
2022-12-02T22:03:56.319Z,1.60
2022-12-02T22:06:23.503Z,1.70
2022-12-02T22:08:50.757Z,1.60
2022-12-02T22:11:17.944Z,1.60
2022-12-02T22:13:45.482Z,1.60
2022-12-02T22:16:12.754Z,1.60
2022-12-02T22:18:40.124Z,1.60
2022-12-02T22:21:07.311Z,1.60
2022-12-02T22:23:34.533Z,1.60
2022-12-02T22:26:02.010Z,1.60
2022-12-02T22:28:29.183Z,1.60
2022-12-02T22:30:57.521Z,1.60
2022-12-02T22:33:27.469Z,1.60
2022-12-02T22:35:59.040Z,1.50
2022-12-02T22:38:26.248Z,1.60
2022-12-02T22:40:53.453Z,1.50
2022-12-02T22:43:20.649Z,1.50
2022-12-02T22:45:47.983Z,1.50
2022-12-02T22:48:15.314Z,1.50
2022-12-02T22:50:42.505Z,1.50
2022-12-02T22:53:09.684Z,1.50
2022-12-02T22:55:37.119Z,1.50
2022-12-02T22:58:04.338Z,1.60
2022-12-02T23:00:31.613Z,1.60
2022-12-02T23:02:58.866Z,1.50
2022-12-02T23:05:26.190Z,1.50
2022-12-02T23:07:53.488Z,1.50
2022-12-02T23:10:20.772Z,1.50
2022-12-02T23:12:48.011Z,1.50
2022-12-02T23:18:02.505Z,1.60
2022-12-02T23:20:29.693Z,1.50
2022-12-02T23:22:56.873Z,1.50
2022-12-02T23:25:24.091Z,1.40
2022-12-02T23:27:51.301Z,1.40
2022-12-02T23:30:21.397Z,1.50
2022-12-02T23:32:55.248Z,1.60
2022-12-02T23:35:22.444Z,1.50
2022-12-02T23:37:49.795Z,1.50
2022-12-02T23:40:17.119Z,1.60
2022-12-02T23:42:44.314Z,1.40
2022-12-02T23:45:11.884Z,1.50
2022-12-02T23:47:39.475Z,1.40
2022-12-02T23:50:07.675Z,1.50
2022-12-02T23:52:35.012Z,1.50
2022-12-02T23:55:02.222Z,1.50
2022-12-02T23:57:29.522Z,1.50
2022-12-02T23:59:56.767Z,1.50
